createdAt,value
2023-03-07T00:00:24.525Z,99.90
2023-03-07T00:02:52.981Z,99.90
2023-03-07T00:05:21.136Z,99.90
2023-03-07T00:07:49.646Z,99.90
2023-03-07T00:10:18.813Z,99.90
2023-03-07T00:12:46.681Z,99.90
2023-03-07T00:15:14.876Z,99.90
2023-03-07T00:17:46.380Z,99.90
2023-03-07T00:20:21.803Z,99.90
2023-03-07T00:22:52.530Z,99.90
2023-03-07T00:25:20.995Z,99.90
2023-03-07T00:27:48.823Z,99.90
2023-03-07T00:30:17.408Z,99.90
2023-03-07T00:32:44.910Z,99.90
2023-03-07T00:35:13.204Z,99.90
2023-03-07T00:37:40.801Z,99.90
2023-03-07T00:40:12.323Z,99.90
2023-03-07T00:42:40.152Z,99.90
2023-03-07T00:45:08.958Z,99.90
2023-03-07T00:47:36.920Z,99.90
2023-03-07T00:50:06.149Z,99.90
2023-03-07T00:52:34.283Z,99.90
2023-03-07T00:55:05.305Z,99.90
2023-03-07T00:57:33.085Z,99.90
2023-03-07T01:00:01.248Z,99.90
2023-03-07T01:02:28.797Z,99.90
2023-03-07T01:04:56.681Z,99.90
2023-03-07T01:07:26.179Z,99.90
2023-03-07T01:09:54.366Z,99.90
2023-03-07T01:12:22.578Z,99.90
2023-03-07T01:14:51.812Z,99.90
2023-03-07T01:17:19.471Z,99.90
2023-03-07T01:19:47.373Z,99.90
2023-03-07T01:22:15.630Z,99.90
2023-03-07T01:24:45.146Z,99.90
2023-03-07T01:27:13.416Z,99.90
2023-03-07T01:29:41.699Z,99.90
2023-03-07T01:32:10.645Z,99.90
2023-03-07T01:34:40.067Z,99.90
2023-03-07T01:37:07.939Z,99.90
2023-03-07T01:39:35.639Z,99.90
2023-03-07T01:42:05.829Z,99.90
2023-03-07T01:44:54.538Z,99.90
2023-03-07T01:47:23.982Z,99.90
2023-03-07T01:49:55.315Z,99.90
2023-03-07T01:52:36.307Z,99.90
2023-03-07T01:55:12.343Z,99.90
2023-03-07T01:57:43.766Z,99.90
2023-03-07T02:00:17.137Z,99.90
2023-03-07T02:02:47.882Z,99.90
2023-03-07T02:05:24.326Z,99.90
2023-03-07T02:07:56.278Z,99.90
2023-03-07T02:10:34.146Z,99.90
2023-03-07T02:13:02.818Z,99.90
2023-03-07T02:15:31.488Z,99.90
2023-03-07T02:18:02.701Z,99.90
2023-03-07T02:20:46.711Z,99.90
2023-03-07T02:23:18.202Z,99.90
2023-03-07T02:25:59.473Z,99.90
2023-03-07T02:28:28.759Z,99.90
2023-03-07T02:30:59.914Z,99.90
2023-03-07T02:33:29.728Z,99.90
2023-03-07T02:36:05.638Z,99.90
2023-03-07T02:38:37.674Z,99.90
2023-03-07T02:41:27.363Z,99.90
2023-03-07T02:43:55.853Z,99.90
2023-03-07T02:46:27.743Z,99.90
2023-03-07T02:48:55.150Z,99.90
2023-03-07T02:51:23.387Z,99.90
2023-03-07T02:53:51.852Z,99.90
2023-03-07T02:56:20.085Z,99.90
2023-03-07T02:58:49.187Z,99.90
2023-03-07T03:03:57.192Z,99.90
2023-03-07T03:06:39.144Z,99.90
2023-03-07T03:09:07.734Z,99.90
2023-03-07T03:11:35.778Z,99.90
2023-03-07T03:14:03.385Z,99.90
2023-03-07T03:16:34.451Z,99.90
2023-03-07T03:19:02.343Z,99.90
2023-03-07T03:21:30.054Z,99.90
2023-03-07T03:23:58.412Z,99.90
2023-03-07T03:26:26.412Z,99.90
2023-03-07T03:28:55.117Z,99.90
2023-03-07T03:31:23.287Z,99.90
2023-03-07T03:33:52.790Z,99.90
2023-03-07T03:36:20.743Z,99.90
2023-03-07T03:38:49.251Z,99.90
2023-03-07T03:41:17.298Z,99.90
2023-03-07T03:43:49.219Z,99.90
2023-03-07T03:46:19.818Z,99.90
2023-03-07T03:48:54.611Z,99.90
2023-03-07T03:51:25.020Z,99.90
2023-03-07T03:53:54.317Z,99.90
2023-03-07T03:56:23.737Z,99.90
2023-03-07T03:58:57.106Z,99.90
2023-03-07T04:01:27.164Z,99.90
2023-03-07T04:03:56.092Z,99.90
2023-03-07T04:06:26.963Z,99.90
2023-03-07T04:08:56.209Z,99.90
2023-03-07T04:11:25.057Z,99.90
2023-03-07T04:13:53.690Z,99.90
2023-03-07T04:16:22.776Z,99.90
2023-03-07T04:18:51.239Z,99.90
2023-03-07T04:21:20.258Z,99.90
2023-03-07T04:23:53.378Z,99.90
2023-03-07T04:26:22.125Z,99.90
2023-03-07T04:28:50.283Z,99.90
2023-03-07T04:31:25.551Z,99.90
2023-03-07T04:33:56.337Z,99.90
2023-03-07T04:36:25.352Z,99.90
2023-03-07T04:38:53.876Z,99.90
2023-03-07T04:41:23.883Z,99.90
2023-03-07T04:43:54.799Z,99.90
2023-03-07T04:46:24.239Z,99.90
2023-03-07T04:48:51.973Z,99.90
2023-03-07T04:51:20.611Z,99.90
2023-03-07T04:53:49.839Z,99.90
2023-03-07T04:56:18.319Z,99.90
2023-03-07T04:58:47.347Z,99.90
2023-03-07T05:01:16.073Z,99.90
2023-03-07T05:03:45.246Z,99.90
2023-03-07T05:06:15.980Z,99.90
2023-03-07T05:08:46.025Z,99.90
2023-03-07T05:11:14.377Z,99.90
2023-03-07T05:13:44.617Z,99.90
2023-03-07T05:16:13.828Z,99.90
2023-03-07T05:18:41.921Z,99.90
2023-03-07T05:21:09.826Z,99.90
2023-03-07T05:23:41.472Z,99.90
2023-03-07T05:26:10.573Z,99.90
2023-03-07T05:28:38.845Z,99.90
2023-03-07T05:31:07.620Z,99.90
2023-03-07T05:33:38.625Z,99.90
2023-03-07T05:36:06.995Z,99.90
2023-03-07T05:38:35.606Z,99.90
2023-03-07T05:41:05.370Z,99.90
2023-03-07T05:43:36.359Z,99.90
2023-03-07T05:46:05.506Z,99.90
2023-03-07T05:48:33.417Z,99.90
2023-03-07T05:51:04.744Z,99.90
2023-03-07T05:53:33.300Z,99.90
2023-03-07T05:56:01.459Z,99.90
2023-03-07T05:58:29.718Z,99.90
2023-03-07T06:00:57.820Z,99.90
2023-03-07T06:03:33.230Z,99.90
2023-03-07T06:06:00.817Z,99.90
2023-03-07T06:08:29.702Z,99.90
2023-03-07T06:10:57.842Z,99.90
2023-03-07T06:13:27.374Z,99.90
2023-03-07T06:15:56.286Z,99.90
2023-03-07T06:18:25.736Z,99.90
2023-03-07T06:20:59.237Z,99.90
2023-03-07T06:23:29.071Z,99.90
2023-03-07T06:25:57.961Z,99.90
2023-03-07T06:28:26.237Z,99.90
2023-03-07T06:30:54.706Z,99.90
2023-03-07T06:33:24.658Z,99.90
2023-03-07T06:35:52.645Z,99.90
2023-03-07T06:38:20.726Z,99.90
2023-03-07T06:40:58.286Z,99.90
2023-03-07T06:43:26.581Z,99.90
2023-03-07T06:45:58.246Z,99.90
2023-03-07T06:48:27.737Z,99.90
2023-03-07T06:50:55.281Z,99.90
2023-03-07T06:53:24.154Z,99.90
2023-03-07T06:55:53.144Z,99.90
2023-03-07T06:58:21.422Z,99.90
2023-03-07T07:00:49.721Z,99.90
2023-03-07T07:03:20.327Z,99.90
2023-03-07T07:05:48.320Z,99.90
2023-03-07T07:08:16.240Z,99.90
2023-03-07T07:10:44.001Z,99.90
2023-03-07T07:13:13.801Z,99.90
2023-03-07T07:15:42.995Z,99.90
2023-03-07T07:18:14.192Z,99.90
2023-03-07T07:21:02.130Z,99.90
2023-03-07T07:23:31.163Z,99.90
2023-03-07T07:25:59.956Z,99.90
2023-03-07T07:28:28.268Z,99.90
2023-03-07T07:30:57.258Z,99.90
2023-03-07T07:33:25.422Z,99.90
2023-03-07T07:35:55.087Z,99.90
2023-03-07T07:38:23.121Z,99.90
2023-03-07T07:40:51.786Z,99.90
2023-03-07T07:43:19.377Z,99.90
2023-03-07T07:45:49.122Z,99.90
2023-03-07T07:48:19.190Z,99.90
2023-03-07T07:50:47.384Z,99.90
2023-03-07T07:53:17.936Z,99.90
2023-03-07T07:55:46.256Z,99.90
2023-03-07T07:58:14.418Z,99.90
2023-03-07T08:00:42.170Z,99.90
2023-03-07T08:03:09.812Z,99.90
2023-03-07T08:05:38.142Z,99.90
2023-03-07T08:08:08.662Z,99.90
2023-03-07T08:10:36.737Z,99.90
2023-03-07T08:13:05.321Z,99.90
2023-03-07T08:15:33.473Z,99.90
2023-03-07T08:18:01.646Z,99.90
2023-03-07T08:20:49.177Z,99.90
2023-03-07T08:23:17.510Z,99.90
2023-03-07T08:25:46.436Z,99.90
2023-03-07T08:28:15.159Z,99.90
2023-03-07T08:30:43.481Z,99.90
2023-03-07T08:33:14.684Z,99.90
2023-03-07T08:35:43.045Z,99.90
2023-03-07T08:38:11.459Z,99.90
2023-03-07T08:40:39.663Z,99.90
2023-03-07T08:43:07.802Z,99.90
2023-03-07T08:45:35.828Z,99.90
2023-03-07T08:48:04.695Z,99.90
2023-03-07T08:50:32.949Z,99.90
2023-03-07T08:53:06.834Z,99.90
2023-03-07T08:55:36.792Z,99.90
2023-03-07T08:58:04.887Z,99.90
2023-03-07T09:00:33.795Z,99.90
2023-03-07T09:03:02.034Z,99.90
2023-03-07T09:05:30.703Z,99.90
2023-03-07T09:07:58.956Z,99.90
2023-03-07T09:10:27.721Z,99.90
2023-03-07T09:12:55.631Z,99.90
2023-03-07T09:15:23.703Z,99.90
2023-03-07T09:17:51.526Z,99.90
2023-03-07T09:20:19.969Z,99.90
2023-03-07T09:22:48.103Z,99.90
2023-03-07T09:25:17.286Z,99.90
2023-03-07T09:27:48.911Z,99.90
2023-03-07T09:30:20.818Z,99.90
2023-03-07T09:32:50.058Z,99.90
2023-03-07T09:35:19.431Z,99.90
2023-03-07T09:37:47.495Z,99.90
2023-03-07T09:40:28.867Z,99.90
2023-03-07T09:43:21.789Z,99.90
2023-03-07T09:46:22.709Z,99.90
2023-03-07T09:48:54.378Z,99.90
2023-03-07T09:51:29.785Z,99.90
2023-03-07T09:54:07.876Z,99.90
2023-03-07T09:56:45.217Z,99.90
2023-03-07T09:59:23.462Z,99.90
2023-03-07T10:02:24.360Z,99.90
2023-03-07T10:05:02.326Z,99.90
2023-03-07T10:07:30.661Z,99.90
2023-03-07T10:10:02.223Z,99.90
2023-03-07T10:12:39.884Z,99.90
2023-03-07T10:15:40.309Z,99.90
2023-03-07T10:18:47.523Z,99.90
2023-03-07T10:21:25.751Z,99.90
2023-03-07T10:24:06.191Z,99.90
2023-03-07T10:26:44.267Z,99.90
2023-03-07T10:29:18.736Z,99.90
2023-03-07T10:31:50.771Z,99.90
2023-03-07T10:34:30.107Z,99.90
2023-03-07T10:37:16.965Z,99.90
2023-03-07T10:39:54.140Z,99.90
2023-03-07T10:42:30.078Z,99.90
2023-03-07T10:45:01.468Z,99.90
2023-03-07T10:47:30.200Z,99.90
2023-03-07T10:50:05.085Z,99.90
2023-03-07T10:52:43.922Z,99.90
2023-03-07T10:55:44.689Z,99.90
2023-03-07T10:58:26.953Z,99.90
2023-03-07T11:01:10.827Z,99.90
2023-03-07T11:03:56.944Z,99.90
2023-03-07T11:06:44.120Z,99.90
2023-03-07T11:09:43.411Z,99.90
2023-03-07T11:12:14.517Z,99.90
2023-03-07T11:14:58.601Z,99.90
2023-03-07T11:17:45.251Z,99.90
2023-03-07T11:20:33.454Z,99.90
2023-03-07T11:23:23.152Z,99.90
2023-03-07T11:25:52.967Z,99.90
2023-03-07T11:28:30.687Z,99.90
2023-03-07T11:31:14.328Z,99.90
2023-03-07T11:33:59.709Z,99.90
2023-03-07T11:36:33.839Z,99.90
2023-03-07T11:39:17.213Z,99.90
2023-03-07T11:41:56.611Z,99.90
2023-03-07T11:44:39.537Z,99.90
2023-03-07T11:47:26.003Z,99.90
2023-03-07T11:50:24.442Z,99.90
2023-03-07T11:53:17.765Z,99.90
2023-03-07T11:55:49.277Z,99.90
2023-03-07T11:58:21.064Z,99.90
2023-03-07T12:00:55.741Z,99.30
2023-03-07T12:04:01.288Z,97.20
2023-03-07T12:06:49.424Z,97.70
2023-03-07T12:09:44.440Z,98.60
2023-03-07T12:12:25.465Z,98.50
2023-03-07T12:15:04.339Z,98.10
2023-03-07T12:17:59.272Z,98.60
2023-03-07T12:20:42.803Z,98.80
2023-03-07T12:23:35.104Z,99.00
2023-03-07T12:26:08.514Z,97.70
2023-03-07T12:28:47.015Z,98.40
2023-03-07T12:31:34.552Z,98.40
2023-03-07T12:34:06.529Z,98.70
2023-03-07T12:36:40.891Z,98.70
2023-03-07T12:39:30.978Z,98.40
2023-03-07T12:42:32.375Z,97.70
2023-03-07T12:45:16.597Z,97.70
2023-03-07T12:47:58.001Z,97.80
2023-03-07T12:50:41.975Z,97.10
2023-03-07T12:53:23.958Z,97.40
2023-03-07T12:56:15.695Z,97.60
2023-03-07T12:58:48.413Z,97.60
2023-03-07T13:01:29.130Z,97.10
2023-03-07T13:04:01.320Z,96.90
2023-03-07T13:06:30.501Z,97.10
2023-03-07T13:09:04.336Z,96.90
2023-03-07T13:11:34.799Z,96.80
2023-03-07T13:14:04.712Z,96.70
2023-03-07T13:16:50.879Z,96.60
2023-03-07T13:19:43.174Z,96.50
2023-03-07T13:22:20.910Z,96.10
2023-03-07T13:24:53.758Z,95.90
2023-03-07T13:27:43.424Z,95.90
2023-03-07T13:30:20.654Z,95.70
2023-03-07T13:33:00.714Z,95.50
2023-03-07T13:35:35.287Z,96.40
2023-03-07T13:38:23.754Z,96.20
2023-03-07T13:40:55.332Z,96.30
2023-03-07T13:43:28.335Z,96.30
2023-03-07T13:45:59.479Z,96.00
2023-03-07T13:48:33.682Z,96.40
2023-03-07T13:51:05.396Z,96.40
2023-03-07T13:53:45.899Z,96.50
2023-03-07T13:56:22.550Z,96.80
2023-03-07T13:58:53.928Z,96.40
2023-03-07T14:01:31.705Z,96.30
2023-03-07T14:04:39.542Z,96.30
2023-03-07T14:07:03.824Z,95.70
2023-03-07T14:09:51.260Z,95.60
2023-03-07T14:12:26.084Z,94.50
2023-03-07T14:15:14.578Z,94.80
2023-03-07T14:18:11.068Z,94.10
2023-03-07T14:21:02.743Z,94.00
2023-03-07T14:23:48.610Z,94.00
2023-03-07T14:29:22.265Z,93.80
2023-03-07T14:31:53.426Z,94.00
2023-03-07T14:34:39.084Z,93.80
2023-03-07T14:37:14.321Z,93.90
2023-03-07T14:40:02.667Z,94.40
2023-03-07T14:43:01.992Z,93.90
2023-03-07T14:45:50.302Z,94.00
2023-03-07T14:48:30.980Z,94.30
2023-03-07T14:51:02.939Z,94.90
2023-03-07T14:53:32.959Z,95.20
2023-03-07T14:56:01.810Z,95.40
2023-03-07T14:58:32.678Z,95.00
2023-03-07T15:01:07.119Z,94.70
2023-03-07T15:03:35.033Z,93.90
2023-03-07T15:06:03.651Z,93.80
2023-03-07T15:08:35.638Z,94.10
2023-03-07T15:11:07.392Z,94.20
2023-03-07T15:13:51.693Z,94.10
2023-03-07T15:16:42.347Z,94.10
2023-03-07T15:19:17.177Z,94.60
2023-03-07T15:21:49.313Z,95.00
2023-03-07T15:24:20.555Z,95.10
2023-03-07T15:26:54.969Z,94.80
2023-03-07T15:29:25.514Z,94.80
2023-03-07T15:31:57.963Z,94.90
2023-03-07T15:34:28.842Z,95.20
2023-03-07T15:37:12.817Z,95.50
2023-03-07T15:39:41.290Z,95.30
2023-03-07T15:42:11.339Z,95.40
2023-03-07T15:44:40.076Z,95.30
2023-03-07T15:47:17.227Z,95.10
2023-03-07T15:49:49.242Z,94.90
2023-03-07T15:52:32.746Z,95.00
2023-03-07T15:55:05.030Z,95.70
2023-03-07T15:57:36.941Z,95.90
2023-03-07T16:00:08.432Z,95.70
2023-03-07T16:02:40.173Z,96.10
2023-03-07T16:05:17.907Z,96.10
2023-03-07T16:07:46.620Z,96.50
2023-03-07T16:10:15.102Z,96.60
2023-03-07T16:12:47.648Z,96.90
2023-03-07T16:15:18.292Z,96.90
2023-03-07T16:17:47.167Z,97.00
2023-03-07T16:20:20.325Z,97.30
2023-03-07T16:22:51.305Z,97.50
2023-03-07T16:25:21.213Z,96.90
2023-03-07T16:27:58.018Z,96.90
2023-03-07T16:30:28.392Z,97.20
2023-03-07T16:32:56.941Z,97.70
2023-03-07T16:35:27.914Z,97.40
2023-03-07T16:37:56.719Z,97.50
2023-03-07T16:40:27.284Z,97.50
2023-03-07T16:42:56.595Z,97.80
2023-03-07T16:45:30.969Z,97.60
2023-03-07T16:48:01.340Z,97.10
2023-03-07T16:50:32.077Z,97.30
2023-03-07T16:53:00.389Z,97.20
2023-03-07T16:55:28.703Z,97.60
2023-03-07T16:58:00.546Z,98.30
2023-03-07T17:00:29.793Z,96.80
2023-03-07T17:03:00.997Z,97.00
2023-03-07T17:05:30.270Z,96.90
2023-03-07T17:08:00.320Z,96.90
2023-03-07T17:10:28.427Z,96.70
2023-03-07T17:12:58.597Z,95.40
2023-03-07T17:15:28.984Z,91.90
2023-03-07T17:17:59.224Z,91.60
2023-03-07T17:20:28.137Z,91.70
2023-03-07T17:22:55.698Z,91.70
2023-03-07T17:25:24.415Z,91.50
2023-03-07T17:28:01.820Z,91.60
2023-03-07T17:30:31.424Z,91.30
2023-03-07T17:32:59.062Z,91.40
2023-03-07T17:35:28.612Z,91.20
2023-03-07T17:37:57.076Z,90.70
2023-03-07T17:40:25.302Z,91.00
2023-03-07T17:42:57.543Z,90.90
2023-03-07T17:45:25.789Z,90.80
2023-03-07T17:47:55.611Z,90.90
2023-03-07T17:50:27.037Z,90.90
2023-03-07T17:52:56.188Z,90.90
2023-03-07T17:55:25.672Z,91.00
2023-03-07T17:57:54.148Z,90.70
2023-03-07T18:00:23.249Z,90.70
2023-03-07T18:02:51.908Z,91.10
2023-03-07T18:05:19.987Z,91.20
2023-03-07T18:07:47.950Z,91.10
2023-03-07T18:10:15.820Z,91.20
2023-03-07T18:12:43.678Z,91.60
2023-03-07T18:15:15.056Z,91.40
2023-03-07T18:17:49.160Z,91.60
2023-03-07T18:20:15.717Z,91.70
2023-03-07T18:22:43.950Z,91.60
2023-03-07T18:25:15.257Z,91.70
2023-03-07T18:27:43.981Z,91.80
2023-03-07T18:30:12.925Z,91.70
2023-03-07T18:32:40.846Z,91.70
2023-03-07T18:35:11.122Z,92.20
2023-03-07T18:37:39.340Z,92.00
2023-03-07T18:40:08.870Z,92.10
2023-03-07T18:42:37.252Z,92.20
2023-03-07T18:45:07.620Z,92.20
2023-03-07T18:47:35.921Z,92.20
2023-03-07T18:50:05.004Z,92.00
2023-03-07T18:52:34.405Z,92.20
2023-03-07T18:55:02.506Z,92.40
2023-03-07T18:57:30.888Z,92.40
2023-03-07T18:59:59.105Z,93.60
2023-03-07T19:02:27.455Z,93.60
2023-03-07T19:04:55.452Z,93.60
2023-03-07T19:07:24.791Z,93.70
2023-03-07T19:09:54.008Z,93.80
2023-03-07T19:12:21.897Z,94.10
2023-03-07T19:14:50.120Z,94.50
2023-03-07T19:17:18.605Z,94.60
2023-03-07T19:19:47.537Z,94.40
2023-03-07T19:22:16.618Z,94.50
2023-03-07T19:24:45.041Z,95.30
2023-03-07T19:27:16.270Z,96.00
2023-03-07T19:29:46.750Z,96.00
2023-03-07T19:32:14.709Z,96.30
2023-03-07T19:34:43.007Z,96.70
2023-03-07T19:37:11.158Z,96.40
2023-03-07T19:39:39.713Z,97.40
2023-03-07T19:42:07.476Z,97.40
2023-03-07T19:44:36.188Z,97.30
2023-03-07T19:47:04.963Z,97.60
2023-03-07T19:49:34.740Z,97.40
2023-03-07T19:52:03.124Z,97.60
2023-03-07T19:54:31.187Z,97.60
2023-03-07T19:56:59.432Z,98.00
2023-03-07T19:59:27.881Z,97.70
2023-03-07T20:01:56.226Z,98.10
2023-03-07T20:04:24.976Z,98.10
2023-03-07T20:06:52.600Z,98.20
2023-03-07T20:09:20.459Z,98.40
2023-03-07T20:11:49.557Z,98.20
2023-03-07T20:14:18.437Z,98.30
2023-03-07T20:16:46.536Z,98.30
2023-03-07T20:19:14.865Z,98.60
2023-03-07T20:21:45.087Z,98.60
2023-03-07T20:24:16.088Z,98.60
2023-03-07T20:26:44.263Z,98.20
2023-03-07T20:29:14.112Z,98.30
2023-03-07T20:31:45.220Z,98.20
2023-03-07T20:34:13.109Z,98.40
2023-03-07T20:36:42.519Z,98.50
2023-03-07T20:39:15.794Z,98.70
2023-03-07T20:41:45.282Z,99.00
2023-03-07T20:44:16.547Z,99.00
2023-03-07T20:46:44.789Z,99.20
2023-03-07T20:49:14.299Z,99.10
2023-03-07T20:51:44.619Z,99.20
2023-03-07T20:54:15.363Z,99.00
2023-03-07T20:56:44.184Z,99.10
2023-03-07T20:59:17.501Z,99.40
2023-03-07T21:01:50.890Z,99.40
2023-03-07T21:04:18.701Z,99.90
2023-03-07T21:06:48.872Z,99.90
2023-03-07T21:09:19.071Z,99.60
2023-03-07T21:11:49.357Z,99.90
2023-03-07T21:14:19.411Z,99.80
2023-03-07T21:16:47.649Z,99.80
2023-03-07T21:19:16.374Z,99.90
2023-03-07T21:21:45.076Z,99.90
2023-03-07T21:24:14.398Z,99.90
2023-03-07T21:26:42.027Z,99.90
2023-03-07T21:29:11.457Z,99.90
2023-03-07T21:31:42.718Z,99.90
2023-03-07T21:34:13.808Z,99.90
2023-03-07T21:36:41.824Z,99.90
2023-03-07T21:39:23.985Z,99.90
2023-03-07T21:41:52.242Z,99.90
2023-03-07T21:44:20.946Z,99.90
2023-03-07T21:46:48.725Z,99.90
2023-03-07T21:49:17.289Z,99.90
2023-03-07T21:51:45.158Z,99.90
2023-03-07T21:54:13.835Z,99.90
2023-03-07T21:56:41.455Z,99.90
2023-03-07T21:59:10.584Z,99.90
2023-03-07T22:01:40.407Z,99.90
2023-03-07T22:04:09.623Z,99.90
2023-03-07T22:06:37.724Z,99.90
2023-03-07T22:09:05.546Z,99.90
2023-03-07T22:11:34.316Z,99.90
2023-03-07T22:14:05.449Z,99.90
2023-03-07T22:16:34.058Z,99.90
2023-03-07T22:19:05.688Z,99.90
2023-03-07T22:21:34.209Z,99.90
2023-03-07T22:24:02.636Z,99.90
2023-03-07T22:26:32.501Z,99.90
2023-03-07T22:29:00.650Z,99.90
2023-03-07T22:31:28.454Z,99.90
2023-03-07T22:33:59.103Z,99.90
2023-03-07T22:36:27.446Z,99.90
2023-03-07T22:38:55.861Z,99.90
2023-03-07T22:41:24.587Z,99.90
2023-03-07T22:43:52.771Z,99.90
2023-03-07T22:46:21.363Z,99.90
2023-03-07T22:48:54.729Z,99.90
2023-03-07T22:51:24.299Z,99.90
2023-03-07T22:53:52.996Z,99.90
2023-03-07T22:56:24.489Z,99.90
2023-03-07T22:58:52.736Z,99.90
2023-03-07T23:01:25.560Z,99.90
2023-03-07T23:03:55.332Z,99.90
2023-03-07T23:06:25.184Z,99.90
2023-03-07T23:08:54.132Z,99.90
2023-03-07T23:11:25.355Z,99.90
2023-03-07T23:13:54.629Z,99.90
2023-03-07T23:16:25.089Z,99.90
2023-03-07T23:18:55.818Z,99.90
2023-03-07T23:21:26.467Z,99.90
2023-03-07T23:23:55.255Z,99.90
2023-03-07T23:26:29.771Z,99.90
2023-03-07T23:28:58.227Z,99.90
2023-03-07T23:31:29.538Z,99.90
2023-03-07T23:33:59.855Z,99.90
2023-03-07T23:36:29.823Z,99.90
2023-03-07T23:38:59.249Z,99.90
2023-03-07T23:41:27.466Z,99.90
2023-03-07T23:43:57.748Z,99.90
2023-03-07T23:46:26.167Z,99.90
2023-03-07T23:48:54.674Z,99.90
2023-03-07T23:51:26.172Z,99.90
2023-03-07T23:53:53.813Z,99.90
2023-03-07T23:56:22.085Z,99.90
2023-03-07T23:58:51.869Z,99.90
